Time;durP1;ratioP1;P1;durP2;ratioP2;P2;SDS_P1;SDS_P2;PMS_P1;PMS_P2;Temp;Humidity;BMP_temperature;BMP_pressure;BME280_temperature;BME280_humidity;BME280_pressure;Samples;Min_cycle;Max_cycle;Signal;HPM_P1;HPM_P2
2022/02/23 05:38:06;;;;;;;220.10;204.35;;;;;;;7.40;69.95;101327.25;15435193;28;20243;-61
2022/02/23 05:45:40;;;;;;;200.13;186.15;;;;;;;7.40;69.97;101341.16;15439260;28;20062;-61
2022/02/23 06:29:58;;;;;;;238.60;222.23;;;;;;;7.66;69.42;101425.00;15411469;28;20459;-58
2022/02/23 06:37:30;;;;;;;212.52;194.68;;;;;;;7.35;70.09;101453.09;15417749;28;20055;-62
2022/02/23 07:03:49;;;;;;;246.30;229.63;;;;;;;7.59;69.72;101521.72;15436827;28;20070;-61
2022/02/23 07:11:25;;;;;;;259.63;239.35;;;;;;;7.70;68.83;101537.16;15416051;28;20066;-62
2022/02/23 07:18:59;;;;;;;310.27;285.98;;;;;;;7.78;68.59;101547.66;15433798;28;20054;-62
2022/02/23 07:26:31;;;;;;;;;;;;;;;8.78;64.98;101565.34;15416654;28;20053;-63
2022/02/23 07:34:05;;;;;;;430.55;387.27;;;;;;;9.07;63.96;101573.56;15399710;28;19922;-63
2022/02/23 07:41:38;;;;;;;;;;;;;;;9.10;63.45;101600.78;15415861;28;20582;-61
2022/02/23 07:49:13;;;;;;;256.98;236.43;;;;;;;9.81;61.72;101605.16;15430674;28;19933;-62
2022/02/23 07:56:45;;;;;;;339.20;297.75;;;;;;;9.62;61.42;101602.44;15430869;28;20047;-60
2022/02/23 08:04:20;;;;;;;428.05;349.77;;;;;;;9.12;62.09;101621.63;15429915;28;20435;-60
2022/02/23 08:11:53;;;;;;;484.45;432.98;;;;;;;9.70;59.52;101631.56;15395482;28;20050;-62
2022/02/23 08:19:31;;;;;;;304.85;247.30;;;;;;;10.59;57.55;101629.31;15411832;28;20053;-61
2022/02/23 08:27:06;;;;;;;355.25;266.58;;;;;;;11.05;55.78;101649.84;15427435;28;20042;-59
2022/02/23 08:34:42;;;;;;;550.47;486.70;;;;;;;11.58;54.59;101650.00;15421210;28;20047;-63
2022/02/23 08:42:17;;;;;;;1255.50;665.50;;;;;;;11.58;53.56;101652.78;15432267;28;20042;-61
2022/02/23 08:49:51;;;;;;;536.35;487.60;;;;;;;12.34;52.44;101663.97;15426854;28;20085;-61
2022/02/23 08:57:23;;;;;;;250.30;226.88;;;;;;;11.60;53.25;101678.44;15427112;28;20078;-64
2022/02/23 09:04:58;;;;;;;435.17;396.67;;;;;;;12.28;52.14;101682.03;15394675;28;20051;-62
2022/02/23 09:12:30;;;;;;;324.13;260.75;;;;;;;11.92;52.20;101670.97;15428493;28;20125;-61
2022/02/23 09:20:12;;;;;;;301.97;236.07;;;;;;;12.39;50.39;101681.44;15409766;28;20089;-62
2022/02/23 09:27:46;;;;;;;129.47;115.57;;;;;;;12.37;50.95;101702.50;15409817;28;20062;-62
2022/02/23 09:35:21;;;;;;;1999.90;999.90;;;;;;;13.62;47.44;101691.81;15426207;28;20058;-58
2022/02/23 09:42:54;;;;;;;1999.90;999.90;;;;;;;13.98;45.81;101680.25;15425803;28;20058;-61
2022/02/23 09:50:29;;;;;;;1016.80;511.23;;;;;;;13.65;46.62;101708.81;15423970;28;20073;-61
2022/02/23 09:58:09;;;;;;;1999.90;999.90;;;;;;;13.28;45.82;101715.88;15404304;28;20093;-62
2022/02/23 10:06:33;;;;;;;1999.90;999.90;;;;;;;11.95;48.75;101737.47;15417539;28;20053;-60
2022/02/23 10:23:25;;;;;;;1999.90;999.90;;;;;;;14.50;42.45;101758.78;15432883;28;20436;-63
2022/02/23 10:31:11;;;;;;;1999.90;999.90;;;;;;;16.00;41.68;101777.78;15402492;28;20051;-61
2022/02/23 10:39:00;;;;;;;1999.90;999.90;;;;;;;15.19;42.54;101781.78;15433554;28;20039;-61
2022/02/23 10:46:40;;;;;;;1999.90;999.90;;;;;;;14.38;43.47;101802.38;15417756;28;20071;-63
2022/02/23 10:54:16;;;;;;;1999.90;999.90;;;;;;;15.44;41.89;101805.31;15433998;28;20049;-63
2022/02/23 11:01:51;;;;;;;1999.90;999.90;;;;;;;14.19;43.76;101818.72;15433603;28;20360;-61
2022/02/23 11:09:24;;;;;;;1999.90;999.90;;;;;;;14.61;42.20;101810.63;15416428;28;20151;-62
2022/02/23 11:16:59;;;;;;;;;;;;;;;15.75;40.98;101819.06;15416559;28;20046;-61
2022/02/23 11:24:33;;;;;;;1999.90;999.90;;;;;;;14.31;42.71;101837.72;15431733;28;19926;-61
2022/02/23 11:32:07;;;;;;;;;;;;;;;16.10;39.95;101828.03;15414410;28;20057;-61
2022/02/23 11:39:41;;;;;;;1999.90;999.90;;;;;;;15.76;40.29;101840.41;15431507;28;19979;-61
2022/02/23 11:47:32;;;;;;;1999.90;999.90;;;;;;;13.64;44.63;101854.97;15431687;28;20074;-59
2022/02/23 11:55:26;;;;;;;1999.90;999.90;;;;;;;12.56;46.63;101853.47;15429254;28;20053;-59
2022/02/23 12:03:01;;;;;;;1999.90;999.90;;;;;;;13.02;45.56;101861.47;15412837;28;20043;-62
2022/02/23 12:10:38;;;;;;;1999.90;999.90;;;;;;;13.92;44.55;101856.34;15430596;28;20057;-62
2022/02/23 12:18:16;;;;;;;1999.90;999.90;;;;;;;14.90;41.55;101855.66;15427035;28;20562;-62
2022/02/23 12:25:52;;;;;;;1999.90;999.90;;;;;;;14.92;41.04;101849.69;15414980;28;20062;-62
2022/02/23 12:33:26;;;;;;;1999.90;999.90;;;;;;;14.64;41.12;101863.31;15430525;28;20518;-63
2022/02/23 12:41:03;;;;;;;1999.90;999.90;;;;;;;17.88;36.00;101862.50;15412773;28;20186;-61
2022/02/23 12:48:36;;;;;;;1999.90;999.90;;;;;;;15.99;37.58;101859.78;15426254;28;20039;-61
2022/02/23 12:56:18;;;;;;;1999.90;999.90;;;;;;;16.10;37.66;101864.66;15427614;28;20047;-61
2022/02/23 13:03:53;;;;;;;1999.90;999.90;;;;;;;17.21;36.06;101863.91;15381748;28;20098;-61
2022/02/23 13:11:34;;;;;;;1999.90;999.90;;;;;;;19.74;32.02;101862.88;15366386;28;20393;-63
2022/02/23 13:19:12;;;;;;;1999.90;999.90;;;;;;;17.19;35.18;101863.41;15407743;28;20054;-61
2022/02/23 13:26:48;;;;;;;1999.90;999.90;;;;;;;18.80;32.47;101879.78;15424693;28;20061;-63
2022/02/23 13:34:30;;;;;;;1999.90;999.90;;;;;;;20.63;30.80;101881.84;15380185;28;20047;-63
2022/02/23 13:42:06;;;;;;;1999.90;999.90;;;;;;;13.75;40.33;101875.94;15417621;28;20046;-64
2022/02/23 13:50:00;;;;;;;1999.90;999.90;;;;;;;14.47;40.85;101877.38;15422926;28;20447;-64
2022/02/23 13:57:44;;;;;;;1999.90;999.90;;;;;;;13.75;41.51;101882.38;15374825;28;20098;-63
2022/02/23 14:05:17;;;;;;;1999.90;999.90;;;;;;;13.75;42.15;101876.78;15388761;28;20055;-62
2022/02/23 14:12:53;;;;;;;1999.90;999.90;;;;;;;13.78;42.05;101889.34;15418995;28;20558;-64
2022/02/23 14:20:26;;;;;;;1999.90;999.90;;;;;;;13.56;42.46;101874.28;15435354;28;20047;-61
2022/02/23 14:28:00;;;;;;;1999.90;999.90;;;;;;;13.31;43.17;101876.97;15401776;28;20048;-61
2022/02/23 14:35:32;;;;;;;;;;;;;;;13.13;43.38;101874.09;15416661;28;20082;-62
2022/02/23 14:43:07;;;;;;;1999.90;999.90;;;;;;;13.12;43.47;101882.78;15424282;28;20332;-62
2022/02/23 14:50:39;;;;;;;1999.90;999.90;;;;;;;13.35;44.13;101876.03;15416932;28;20073;-62
2022/02/23 14:58:13;;;;;;;1999.90;999.90;;;;;;;12.75;44.78;101892.47;15432749;28;20062;-63
2022/02/23 15:05:46;;;;;;;1999.90;999.90;;;;;;;12.24;44.61;101883.34;15417497;28;20125;-62
2022/02/23 15:13:20;;;;;;;1999.90;999.90;;;;;;;12.31;45.68;101889.34;15416068;28;20042;-62
2022/02/23 15:20:52;;;;;;;;;;;;;;;12.23;46.29;101887.31;15416858;28;20118;-62
2022/02/23 15:28:27;;;;;;;1999.90;999.90;;;;;;;11.85;46.78;101882.00;15414868;28;19929;-62
2022/02/23 15:35:59;;;;;;;1999.90;999.90;;;;;;;11.87;46.54;101880.84;15413584;28;20046;-61
2022/02/23 15:43:32;;;;;;;1999.90;999.90;;;;;;;11.91;46.08;101877.13;15431830;28;20057;-59
2022/02/23 15:51:07;;;;;;;1999.90;999.90;;;;;;;11.92;46.30;101875.97;15426231;28;20047;-64
2022/02/23 15:58:52;;;;;;;1999.90;999.90;;;;;;;11.83;46.60;101875.06;15413524;28;20133;-62
2022/02/23 16:06:25;;;;;;;1999.90;999.90;;;;;;;11.89;47.30;101862.63;15413453;28;20035;-62
2022/02/23 16:14:20;;;;;;;1999.90;999.90;;;;;;;11.66;47.34;101860.88;15428603;28;20042;-63
2022/02/23 16:21:52;;;;;;;1999.90;999.90;;;;;;;11.53;47.83;101866.16;15427278;28;20121;-63
2022/02/23 16:29:26;;;;;;;1999.90;999.90;;;;;;;11.56;47.97;101864.69;15395332;28;20373;-63
2022/02/23 16:37:05;;;;;;;1999.90;999.90;;;;;;;11.33;48.75;101854.56;15427066;28;20416;-62
2022/02/23 16:44:39;;;;;;;1999.90;999.90;;;;;;;11.13;48.87;101853.84;15425024;28;20046;-64
2022/02/23 16:52:11;;;;;;;;;;;;;;;10.86;49.14;101863.03;15427805;28;20046;-63
2022/02/23 16:59:45;;;;;;;1999.90;999.90;;;;;;;10.76;49.60;101866.00;15410298;28;19938;-64
2022/02/23 17:07:17;;;;;;;1999.90;999.90;;;;;;;10.72;49.68;101864.13;15420236;28;20348;-64
2022/02/23 17:14:50;;;;;;;1999.90;999.90;;;;;;;10.46;50.20;101870.16;15406633;28;20085;-63
2022/02/23 17:22:22;;;;;;;1999.90;999.90;;;;;;;10.28;50.18;101857.03;15425272;28;20074;-64
2022/02/23 17:29:57;;;;;;;1999.90;999.90;;;;;;;10.16;50.21;101860.28;15407624;28;20420;-62
2022/02/23 17:37:30;;;;;;;1999.90;999.90;;;;;;;9.90;51.32;101847.81;15418749;28;20043;-62
2022/02/23 17:45:04;;;;;;;1520.07;768.50;;;;;;;9.78;51.86;101845.50;15416391;28;20047;-64
2022/02/23 17:52:36;;;;;;;1999.90;999.90;;;;;;;9.60;52.16;101838.78;15418112;28;20043;-64
2022/02/23 18:00:13;;;;;;;306.38;285.00;;;;;;;9.47;53.05;101833.94;15420427;28;20045;-63
2022/02/23 18:07:46;;;;;;;258.73;240.80;;;;;;;9.39;52.61;101827.09;15425286;28;20057;-63
2022/02/23 18:15:23;;;;;;;308.27;286.27;;;;;;;9.19;53.84;101827.34;15423095;28;20067;-62
2022/02/23 18:22:55;;;;;;;381.00;354.35;;;;;;;8.97;54.01;101825.09;15405618;28;20046;-63
2022/02/23 18:30:29;;;;;;;328.53;305.27;;;;;;;9.03;53.84;101809.97;15421302;28;20078;-62
2022/02/23 18:38:01;;;;;;;193.10;179.68;;;;;;;8.87;54.34;101822.41;15423607;28;20055;-62
2022/02/23 18:45:34;;;;;;;333.33;310.48;;;;;;;8.77;54.87;101814.16;15435071;28;20484;-65
2022/02/23 18:53:07;;;;;;;308.33;288.40;;;;;;;8.56;55.15;101817.16;15434197;28;20097;-62
2022/02/23 19:00:41;;;;;;;299.40;280.63;;;;;;;8.28;55.95;101806.81;15415964;28;20046;-59
2022/02/23 19:08:13;;;;;;;251.25;234.82;;;;;;;8.07;56.52;101803.34;15415082;28;20085;-60
2022/02/23 19:15:46;;;;;;;192.40;180.70;;;;;;;7.92;57.32;101801.53;15432565;28;20079;-63
2022/02/23 19:23:19;;;;;;;173.02;161.77;;;;;;;7.51;58.27;101795.41;15426257;28;20066;-62
2022/02/23 19:30:52;;;;;;;140.18;130.15;;;;;;;7.63;58.09;101787.56;15421224;28;20500;-62
2022/02/23 19:38:25;;;;;;;146.90;136.60;;;;;;;7.37;58.11;101775.75;15424802;28;20070;-62
2022/02/23 19:45:59;;;;;;;143.63;134.25;;;;;;;7.17;59.02;101756.41;15435356;28;20129;-61
2022/02/23 19:53:31;;;;;;;;;;;;;;;7.09;59.33;101760.63;15429682;28;20280;-63
2022/02/23 20:01:04;;;;;;;140.15;130.98;;;;;;;6.70;60.09;101740.25;15417323;28;19926;-61
2022/02/23 20:08:36;;;;;;;179.57;167.18;;;;;;;6.61;60.77;101748.31;15421642;28;20042;-63
2022/02/23 20:16:10;;;;;;;145.18;135.30;;;;;;;6.37;61.24;101745.31;15419960;28;20468;-62
2022/02/23 20:23:42;;;;;;;160.85;150.38;;;;;;;6.33;60.70;101742.25;15413969;28;20058;-64
2022/02/23 20:31:15;;;;;;;175.73;164.70;;;;;;;6.24;61.09;101721.75;15412216;28;20097;-60
2022/02/23 20:38:47;;;;;;;;;;;;;;;6.40;61.40;101705.94;15422306;28;20788;-61
2022/02/23 20:46:21;;;;;;;145.93;136.82;;;;;;;6.36;60.68;101707.63;15437593;28;19921;-62
2022/02/23 20:53:53;;;;;;;149.65;141.02;;;;;;;6.43;60.18;101676.81;15428086;28;20416;-60
2022/02/23 21:01:26;;;;;;;137.57;128.45;;;;;;;6.55;60.51;101680.91;15425672;28;20031;-60
2022/02/23 21:09:00;;;;;;;131.55;123.07;;;;;;;6.43;60.74;101676.81;15410519;28;20138;-63
2022/02/23 21:16:33;;;;;;;143.35;133.70;;;;;;;6.48;60.03;101672.09;15426155;28;20046;-61
2022/02/23 21:24:06;;;;;;;165.25;154.98;;;;;;;6.33;60.49;101677.66;15370119;28;20098;-62
2022/02/23 21:31:39;;;;;;;123.43;115.60;;;;;;;6.29;61.34;101674.63;15392232;28;20172;-62
2022/02/23 21:39:15;;;;;;;147.95;138.30;;;;;;;6.07;60.87;101666.66;15421845;28;20228;-62
2022/02/23 21:46:48;;;;;;;154.82;145.50;;;;;;;5.86;61.82;101648.34;15423798;28;20501;-62
2022/02/23 21:54:20;;;;;;;138.07;129.15;;;;;;;5.60;62.07;101643.94;15425300;28;20055;-61
2022/02/23 22:01:54;;;;;;;130.65;122.22;;;;;;;5.27;63.44;101643.38;15424989;28;20043;-62
2022/02/23 22:09:26;;;;;;;132.70;124.45;;;;;;;5.09;63.60;101641.94;15377678;23;20551;-56
2022/02/23 22:16:59;;;;;;;161.45;150.85;;;;;;;4.94;63.56;101636.41;15362386;28;20058;-58
2022/02/23 22:24:31;;;;;;;127.75;118.80;;;;;;;4.96;64.83;101638.88;15368735;29;20090;-55
2022/02/23 22:32:05;;;;;;;164.43;154.23;;;;;;;5.01;64.32;101631.44;15351720;29;20213;-55
2022/02/23 22:39:38;;;;;;;170.30;159.13;;;;;;;4.81;64.57;101648.00;15335967;29;20059;-55
2022/02/23 22:47:11;;;;;;;142.05;132.68;;;;;;;4.55;64.62;101634.06;15367494;29;20043;-58
2022/02/23 22:54:43;;;;;;;201.18;188.40;;;;;;;4.30;65.50;101637.56;15332597;29;20419;-60
2022/02/23 23:02:16;;;;;;;147.93;138.35;;;;;;;4.14;65.08;101632.19;15365909;29;20043;-60
2022/02/23 23:09:49;;;;;;;158.73;147.98;;;;;;;4.15;66.10;101623.63;15365776;29;20079;-57
2022/02/23 23:17:24;;;;;;;122.20;114.15;;;;;;;4.23;66.98;101612.09;15337290;28;20118;-57
2022/02/23 23:24:56;;;;;;;158.23;148.30;;;;;;;4.49;67.19;101598.38;15362804;28;20417;-55
2022/02/23 23:32:29;;;;;;;173.73;163.05;;;;;;;4.64;65.64;101604.78;15364843;29;20523;-55
2022/02/23 23:40:01;;;;;;;224.23;210.05;;;;;;;4.51;66.11;101594.25;15363663;29;20047;-56
2022/02/23 23:47:36;;;;;;;207.25;194.00;;;;;;;4.43;66.05;101566.28;15368366;29;20075;-58
2022/02/23 23:55:08;;;;;;;161.05;151.15;;;;;;;4.49;66.38;101557.75;15380076;29;20050;-59
